Unicoi, Tennessee
Current Conditions -  °F | °C
As of 4:55 AM on Wednesday 26 Nov 2014 (Local Time) from K0A9 Reporting Station
Moderate Rain Moderate Rain  
Wind Chill: 39°   Ceiling: 3300
Heat Index: 39°   Visibility: 7mi
Dew Point: 37°   Wind: 3mph
Humidity: 93%   Direction: 70°ENE
Pressure: 29.94"   Gusts: NA
Location:  36.2°N, 82.35°W
Report Text: K0A9 260955Z AUTO 07003KT 7SM RA OVC033 04/03 A2994 RMK
Loading
Personal Weather Stations






























Interactive Weather Map New forecast layout! Learn more

10-Day Weather Forecast

Advertisements
Track Severe Weather on mobile